<?xml version="1.0" encoding="UTF-8" standalone="no" ?>
<gpx xmlns="http://www.topografix.com/GPX/1/1" xmlns:xsi="http://www.w3.org/2001/XMLSchema-instance" xsi:schemaLocation="http://www.topografix.com/GPX/1/1 http://www.topografix.com/GPX/1/1/gpx.xsd" version="1.1" creator="VisuGPX - https://www.visugpx.com">
  <metadata>
    <name>Une marche aux Marches</name>
    <desc><![CDATA[
Petite rando dans les vignes]]></desc>
  </metadata>
  <wpt lat="45.49371" lon="5.98846">
    <ele>302.5</ele>
    <name><![CDATA[Parking du Lac de Saint-André]]></name>
  </wpt>
  <wpt lat="45.49249" lon="5.98366">
    <ele>311.4</ele>
    <name><![CDATA[Quitter la route]]></name>
    <type><![CDATA[ prendre sentier à gauche ]]></type>
  </wpt>
  <wpt lat="45.49354" lon="5.98255">
    <ele>331.1</ele>
    <name><![CDATA[Virage à 90°]]></name>
  </wpt>
  <wpt lat="45.49457" lon="5.97474">
    <ele>391.2</ele>
    <name><![CDATA[A gauche cers le Chemin du Grand Pré]]></name>
  </wpt>
  <wpt lat="45.49308" lon="5.96911">
    <ele>397.9</ele>
    <name><![CDATA[Intersection en Y]]></name>
    <type><![CDATA[ à gauche sur le Chemin des Eaux]]></type>
  </wpt>
  <wpt lat="45.48352" lon="5.96787">
    <ele>462.6</ele>
    <name><![CDATA[A gauche vers la Palud]]></name>
  </wpt>
  <wpt lat="45.48153" lon="5.96951">
    <ele>476.9</ele>
    <name><![CDATA[La Palud]]></name>
    <type><![CDATA[ intersection]]></type>
  </wpt>
  <wpt lat="45.48427" lon="5.9743">
    <ele>411.9</ele>
    <name><![CDATA[Ligne HT]]></name>
  </wpt>
  <wpt lat="45.49381" lon="5.98831">
    <ele>301.6</ele>
    <name><![CDATA[Parking du lac.]]></name>
  </wpt>
  <trk>
    <name><![CDATA[Une marche aux Marches]]></name>
    <trkseg>
      <trkpt lat="45.49371" lon="5.98846">
        <ele>295</ele>
        <time>2020-01-26T08:41:23 01:00</time>
      </trkpt>
      <trkpt lat="45.49209" lon="5.98619">
        <ele>295</ele>
        <time>2020-01-26T08:41:28 01:00</time>
      </trkpt>
      <trkpt lat="45.49173" lon="5.98564">
        <ele>296</ele>
        <time>2020-01-26T08:41:33 01:00</time>
      </trkpt>
      <trkpt lat="45.49153" lon="5.98509">
        <ele>297</ele>
        <time>2020-01-26T08:41:38 01:00</time>
      </trkpt>
      <trkpt lat="45.49146" lon="5.98439">
        <ele>298</ele>
        <time>2020-01-26T08:41:43 01:00</time>
      </trkpt>
      <trkpt lat="45.49147" lon="5.98408">
        <ele>299</ele>
        <time>2020-01-26T08:41:48 01:00</time>
      </trkpt>
      <trkpt lat="45.4915" lon="5.98373">
        <ele>302</ele>
        <time>2020-01-26T08:41:53 01:00</time>
      </trkpt>
      <trkpt lat="45.49195" lon="5.98359">
        <ele>304</ele>
        <time>2020-01-26T08:41:58 01:00</time>
      </trkpt>
      <trkpt lat="45.49249" lon="5.98366">
        <ele>304</ele>
        <time>2020-01-26T08:42:03 01:00</time>
      </trkpt>
      <trkpt lat="45.49254" lon="5.98325">
        <ele>310</ele>
        <time>2020-01-26T08:42:08 01:00</time>
      </trkpt>
      <trkpt lat="45.49278" lon="5.98303">
        <ele>316</ele>
        <time>2020-01-26T08:42:13 01:00</time>
      </trkpt>
      <trkpt lat="45.49307" lon="5.98288">
        <ele>322</ele>
        <time>2020-01-26T08:42:18 01:00</time>
      </trkpt>
      <trkpt lat="45.49286" lon="5.9825">
        <ele>327</ele>
        <time>2020-01-26T08:42:23 01:00</time>
      </trkpt>
      <trkpt lat="45.49331" lon="5.98256">
        <ele>331</ele>
        <time>2020-01-26T08:42:28 01:00</time>
      </trkpt>
      <trkpt lat="45.49354" lon="5.98255">
        <ele>333</ele>
        <time>2020-01-26T08:42:33 01:00</time>
      </trkpt>
      <trkpt lat="45.49378" lon="5.98261">
        <ele>333</ele>
        <time>2020-01-26T08:42:38 01:00</time>
      </trkpt>
      <trkpt lat="45.494" lon="5.98258">
        <ele>330</ele>
        <time>2020-01-26T08:42:43 01:00</time>
      </trkpt>
      <trkpt lat="45.49425" lon="5.98272">
        <ele>332</ele>
        <time>2020-01-26T08:42:48 01:00</time>
      </trkpt>
      <trkpt lat="45.49486" lon="5.9828">
        <ele>330</ele>
        <time>2020-01-26T08:42:53 01:00</time>
      </trkpt>
      <trkpt lat="45.49547" lon="5.98252">
        <ele>338</ele>
        <time>2020-01-26T08:42:58 01:00</time>
      </trkpt>
      <trkpt lat="45.4954" lon="5.98227">
        <ele>341</ele>
        <time>2020-01-26T08:43:03 01:00</time>
      </trkpt>
      <trkpt lat="45.49552" lon="5.98196">
        <ele>358</ele>
        <time>2020-01-26T08:43:08 01:00</time>
      </trkpt>
      <trkpt lat="45.49541" lon="5.98189">
        <ele>361</ele>
        <time>2020-01-26T08:43:13 01:00</time>
      </trkpt>
      <trkpt lat="45.4955" lon="5.98175">
        <ele>366</ele>
        <time>2020-01-26T08:43:18 01:00</time>
      </trkpt>
      <trkpt lat="45.49534" lon="5.98172">
        <ele>368</ele>
        <time>2020-01-26T08:43:23 01:00</time>
      </trkpt>
      <trkpt lat="45.49545" lon="5.98155">
        <ele>371</ele>
        <time>2020-01-26T08:43:28 01:00</time>
      </trkpt>
      <trkpt lat="45.49533" lon="5.98152">
        <ele>373</ele>
        <time>2020-01-26T08:43:33 01:00</time>
      </trkpt>
      <trkpt lat="45.49553" lon="5.98134">
        <ele>375</ele>
        <time>2020-01-26T08:43:38 01:00</time>
      </trkpt>
      <trkpt lat="45.49547" lon="5.98111">
        <ele>381</ele>
        <time>2020-01-26T08:43:43 01:00</time>
      </trkpt>
      <trkpt lat="45.49527" lon="5.98105">
        <ele>382</ele>
        <time>2020-01-26T08:43:48 01:00</time>
      </trkpt>
      <trkpt lat="45.49544" lon="5.98123">
        <ele>378</ele>
        <time>2020-01-26T08:43:53 01:00</time>
      </trkpt>
      <trkpt lat="45.49526" lon="5.98156">
        <ele>367</ele>
        <time>2020-01-26T08:43:58 01:00</time>
      </trkpt>
      <trkpt lat="45.49536" lon="5.98193">
        <ele>354</ele>
        <time>2020-01-26T08:44:03 01:00</time>
      </trkpt>
      <trkpt lat="45.49541" lon="5.982">
        <ele>351</ele>
        <time>2020-01-26T08:44:08 01:00</time>
      </trkpt>
      <trkpt lat="45.49534" lon="5.98226">
        <ele>341</ele>
        <time>2020-01-26T08:44:13 01:00</time>
      </trkpt>
      <trkpt lat="45.49539" lon="5.9825">
        <ele>334</ele>
        <time>2020-01-26T08:44:18 01:00</time>
      </trkpt>
      <trkpt lat="45.49485" lon="5.98272">
        <ele>331</ele>
        <time>2020-01-26T08:44:23 01:00</time>
      </trkpt>
      <trkpt lat="45.49439" lon="5.98267">
        <ele>330</ele>
        <time>2020-01-26T08:44:28 01:00</time>
      </trkpt>
      <trkpt lat="45.49355" lon="5.98249">
        <ele>332</ele>
        <time>2020-01-26T08:44:33 01:00</time>
      </trkpt>
      <trkpt lat="45.49363" lon="5.98215">
        <ele>339</ele>
        <time>2020-01-26T08:44:38 01:00</time>
      </trkpt>
      <trkpt lat="45.49387" lon="5.98144">
        <ele>348</ele>
        <time>2020-01-26T08:44:43 01:00</time>
      </trkpt>
      <trkpt lat="45.49387" lon="5.98066">
        <ele>353</ele>
        <time>2020-01-26T08:44:48 01:00</time>
      </trkpt>
      <trkpt lat="45.49393" lon="5.98022">
        <ele>357</ele>
        <time>2020-01-26T08:44:53 01:00</time>
      </trkpt>
      <trkpt lat="45.49402" lon="5.97985">
        <ele>363</ele>
        <time>2020-01-26T08:44:58 01:00</time>
      </trkpt>
      <trkpt lat="45.49413" lon="5.97981">
        <ele>365</ele>
        <time>2020-01-26T08:45:03 01:00</time>
      </trkpt>
      <trkpt lat="45.49438" lon="5.97993">
        <ele>368</ele>
        <time>2020-01-26T08:45:08 01:00</time>
      </trkpt>
      <trkpt lat="45.49448" lon="5.9798">
        <ele>370</ele>
        <time>2020-01-26T08:45:13 01:00</time>
      </trkpt>
      <trkpt lat="45.4945" lon="5.97929">
        <ele>371</ele>
        <time>2020-01-26T08:45:18 01:00</time>
      </trkpt>
      <trkpt lat="45.49459" lon="5.97884">
        <ele>372</ele>
        <time>2020-01-26T08:45:23 01:00</time>
      </trkpt>
      <trkpt lat="45.49471" lon="5.97738">
        <ele>394</ele>
        <time>2020-01-26T08:45:28 01:00</time>
      </trkpt>
      <trkpt lat="45.49455" lon="5.9769">
        <ele>394</ele>
        <time>2020-01-26T08:45:33 01:00</time>
      </trkpt>
      <trkpt lat="45.49433" lon="5.97643">
        <ele>394</ele>
        <time>2020-01-26T08:45:38 01:00</time>
      </trkpt>
      <trkpt lat="45.49427" lon="5.97568">
        <ele>393</ele>
        <time>2020-01-26T08:45:43 01:00</time>
      </trkpt>
      <trkpt lat="45.49412" lon="5.9752">
        <ele>391</ele>
        <time>2020-01-26T08:45:48 01:00</time>
      </trkpt>
      <trkpt lat="45.49457" lon="5.97474">
        <ele>387</ele>
        <time>2020-01-26T08:45:53 01:00</time>
      </trkpt>
      <trkpt lat="45.49423" lon="5.97359">
        <ele>386</ele>
        <time>2020-01-26T08:45:58 01:00</time>
      </trkpt>
      <trkpt lat="45.49421" lon="5.97283">
        <ele>384</ele>
        <time>2020-01-26T08:46:03 01:00</time>
      </trkpt>
      <trkpt lat="45.49374" lon="5.9725">
        <ele>386</ele>
        <time>2020-01-26T08:46:08 01:00</time>
      </trkpt>
      <trkpt lat="45.49319" lon="5.97248">
        <ele>387</ele>
        <time>2020-01-26T08:46:13 01:00</time>
      </trkpt>
      <trkpt lat="45.49319" lon="5.97153">
        <ele>388</ele>
        <time>2020-01-26T08:46:18 01:00</time>
      </trkpt>
      <trkpt lat="45.49312" lon="5.97119">
        <ele>389</ele>
        <time>2020-01-26T08:46:23 01:00</time>
      </trkpt>
      <trkpt lat="45.49296" lon="5.97084">
        <ele>391</ele>
        <time>2020-01-26T08:46:28 01:00</time>
      </trkpt>
      <trkpt lat="45.4929" lon="5.97043">
        <ele>392</ele>
        <time>2020-01-26T08:46:33 01:00</time>
      </trkpt>
      <trkpt lat="45.49295" lon="5.97009">
        <ele>393</ele>
        <time>2020-01-26T08:46:38 01:00</time>
      </trkpt>
      <trkpt lat="45.49295" lon="5.96977">
        <ele>394</ele>
        <time>2020-01-26T08:46:43 01:00</time>
      </trkpt>
      <trkpt lat="45.49308" lon="5.96911">
        <ele>394</ele>
        <time>2020-01-26T08:46:48 01:00</time>
      </trkpt>
      <trkpt lat="45.49271" lon="5.96859">
        <ele>398</ele>
        <time>2020-01-26T08:46:53 01:00</time>
      </trkpt>
      <trkpt lat="45.49266" lon="5.96818">
        <ele>399</ele>
        <time>2020-01-26T08:46:58 01:00</time>
      </trkpt>
      <trkpt lat="45.49195" lon="5.96869">
        <ele>399</ele>
        <time>2020-01-26T08:47:03 01:00</time>
      </trkpt>
      <trkpt lat="45.49148" lon="5.96891">
        <ele>400</ele>
        <time>2020-01-26T08:47:08 01:00</time>
      </trkpt>
      <trkpt lat="45.49122" lon="5.96896">
        <ele>400</ele>
        <time>2020-01-26T08:47:13 01:00</time>
      </trkpt>
      <trkpt lat="45.49099" lon="5.96931">
        <ele>399</ele>
        <time>2020-01-26T08:47:18 01:00</time>
      </trkpt>
      <trkpt lat="45.49076" lon="5.96946">
        <ele>398</ele>
        <time>2020-01-26T08:47:23 01:00</time>
      </trkpt>
      <trkpt lat="45.49063" lon="5.96968">
        <ele>398</ele>
        <time>2020-01-26T08:47:28 01:00</time>
      </trkpt>
      <trkpt lat="45.49055" lon="5.96999">
        <ele>398</ele>
        <time>2020-01-26T08:47:33 01:00</time>
      </trkpt>
      <trkpt lat="45.49022" lon="5.97008">
        <ele>398</ele>
        <time>2020-01-26T08:47:38 01:00</time>
      </trkpt>
      <trkpt lat="45.48998" lon="5.96988">
        <ele>399</ele>
        <time>2020-01-26T08:47:43 01:00</time>
      </trkpt>
      <trkpt lat="45.48987" lon="5.96978">
        <ele>401</ele>
        <time>2020-01-26T08:47:48 01:00</time>
      </trkpt>
      <trkpt lat="45.48981" lon="5.96962">
        <ele>401</ele>
        <time>2020-01-26T08:47:53 01:00</time>
      </trkpt>
      <trkpt lat="45.48938" lon="5.96967">
        <ele>406</ele>
        <time>2020-01-26T08:47:58 01:00</time>
      </trkpt>
      <trkpt lat="45.48866" lon="5.96998">
        <ele>414</ele>
        <time>2020-01-26T08:48:03 01:00</time>
      </trkpt>
      <trkpt lat="45.48834" lon="5.96985">
        <ele>417</ele>
        <time>2020-01-26T08:48:08 01:00</time>
      </trkpt>
      <trkpt lat="45.48802" lon="5.96978">
        <ele>420</ele>
        <time>2020-01-26T08:48:13 01:00</time>
      </trkpt>
      <trkpt lat="45.48765" lon="5.97002">
        <ele>424</ele>
        <time>2020-01-26T08:48:18 01:00</time>
      </trkpt>
      <trkpt lat="45.48732" lon="5.97004">
        <ele>427</ele>
        <time>2020-01-26T08:48:23 01:00</time>
      </trkpt>
      <trkpt lat="45.48703" lon="5.96942">
        <ele>427</ele>
        <time>2020-01-26T08:48:28 01:00</time>
      </trkpt>
      <trkpt lat="45.4863" lon="5.96892">
        <ele>432</ele>
        <time>2020-01-26T08:48:33 01:00</time>
      </trkpt>
      <trkpt lat="45.48604" lon="5.96928">
        <ele>435</ele>
        <time>2020-01-26T08:48:38 01:00</time>
      </trkpt>
      <trkpt lat="45.4854" lon="5.96946">
        <ele>438</ele>
        <time>2020-01-26T08:48:43 01:00</time>
      </trkpt>
      <trkpt lat="45.4851" lon="5.96915">
        <ele>439</ele>
        <time>2020-01-26T08:48:48 01:00</time>
      </trkpt>
      <trkpt lat="45.4848" lon="5.96885">
        <ele>441</ele>
        <time>2020-01-26T08:48:53 01:00</time>
      </trkpt>
      <trkpt lat="45.48464" lon="5.96875">
        <ele>443</ele>
        <time>2020-01-26T08:48:58 01:00</time>
      </trkpt>
      <trkpt lat="45.48451" lon="5.96876">
        <ele>444</ele>
        <time>2020-01-26T08:49:03 01:00</time>
      </trkpt>
      <trkpt lat="45.48352" lon="5.96787">
        <ele>456</ele>
        <time>2020-01-26T08:49:08 01:00</time>
      </trkpt>
      <trkpt lat="45.48297" lon="5.96818">
        <ele>465</ele>
        <time>2020-01-26T08:49:13 01:00</time>
      </trkpt>
      <trkpt lat="45.48292" lon="5.96847">
        <ele>465</ele>
        <time>2020-01-26T08:49:18 01:00</time>
      </trkpt>
      <trkpt lat="45.48297" lon="5.96882">
        <ele>465</ele>
        <time>2020-01-26T08:49:23 01:00</time>
      </trkpt>
      <trkpt lat="45.48271" lon="5.96878">
        <ele>469</ele>
        <time>2020-01-26T08:49:28 01:00</time>
      </trkpt>
      <trkpt lat="45.48247" lon="5.96883">
        <ele>474</ele>
        <time>2020-01-26T08:49:33 01:00</time>
      </trkpt>
      <trkpt lat="45.48233" lon="5.96903">
        <ele>476</ele>
        <time>2020-01-26T08:49:38 01:00</time>
      </trkpt>
      <trkpt lat="45.48222" lon="5.9693">
        <ele>476</ele>
        <time>2020-01-26T08:49:43 01:00</time>
      </trkpt>
      <trkpt lat="45.48153" lon="5.96951">
        <ele>480</ele>
        <time>2020-01-26T08:49:48 01:00</time>
      </trkpt>
      <trkpt lat="45.48208" lon="5.97001">
        <ele>474</ele>
        <time>2020-01-26T08:49:53 01:00</time>
      </trkpt>
      <trkpt lat="45.48222" lon="5.97073">
        <ele>467</ele>
        <time>2020-01-26T08:49:58 01:00</time>
      </trkpt>
      <trkpt lat="45.48263" lon="5.97183">
        <ele>457</ele>
        <time>2020-01-26T08:50:03 01:00</time>
      </trkpt>
      <trkpt lat="45.48291" lon="5.97209">
        <ele>452</ele>
        <time>2020-01-26T08:50:08 01:00</time>
      </trkpt>
      <trkpt lat="45.48313" lon="5.97247">
        <ele>446</ele>
        <time>2020-01-26T08:50:13 01:00</time>
      </trkpt>
      <trkpt lat="45.48328" lon="5.97297">
        <ele>436</ele>
        <time>2020-01-26T08:50:18 01:00</time>
      </trkpt>
      <trkpt lat="45.48341" lon="5.97363">
        <ele>424</ele>
        <time>2020-01-26T08:50:23 01:00</time>
      </trkpt>
      <trkpt lat="45.48365" lon="5.97385">
        <ele>418</ele>
        <time>2020-01-26T08:50:28 01:00</time>
      </trkpt>
      <trkpt lat="45.48392" lon="5.97393">
        <ele>414</ele>
        <time>2020-01-26T08:50:33 01:00</time>
      </trkpt>
      <trkpt lat="45.48427" lon="5.9743">
        <ele>406</ele>
        <time>2020-01-26T08:50:38 01:00</time>
      </trkpt>
      <trkpt lat="45.4858" lon="5.97758">
        <ele>374</ele>
        <time>2020-01-26T08:50:43 01:00</time>
      </trkpt>
      <trkpt lat="45.48601" lon="5.9774">
        <ele>373</ele>
        <time>2020-01-26T08:50:48 01:00</time>
      </trkpt>
      <trkpt lat="45.48623" lon="5.97733">
        <ele>371</ele>
        <time>2020-01-26T08:50:53 01:00</time>
      </trkpt>
      <trkpt lat="45.48657" lon="5.9775">
        <ele>367</ele>
        <time>2020-01-26T08:50:58 01:00</time>
      </trkpt>
      <trkpt lat="45.48702" lon="5.97736">
        <ele>365</ele>
        <time>2020-01-26T08:51:03 01:00</time>
      </trkpt>
      <trkpt lat="45.48784" lon="5.97751">
        <ele>362</ele>
        <time>2020-01-26T08:51:08 01:00</time>
      </trkpt>
      <trkpt lat="45.48815" lon="5.97737">
        <ele>363</ele>
        <time>2020-01-26T08:51:13 01:00</time>
      </trkpt>
      <trkpt lat="45.48841" lon="5.97746">
        <ele>363</ele>
        <time>2020-01-26T08:51:18 01:00</time>
      </trkpt>
      <trkpt lat="45.48859" lon="5.9774">
        <ele>364</ele>
        <time>2020-01-26T08:51:23 01:00</time>
      </trkpt>
      <trkpt lat="45.4888" lon="5.97726">
        <ele>365</ele>
        <time>2020-01-26T08:51:28 01:00</time>
      </trkpt>
      <trkpt lat="45.48914" lon="5.97728">
        <ele>367</ele>
        <time>2020-01-26T08:51:33 01:00</time>
      </trkpt>
      <trkpt lat="45.48927" lon="5.9772">
        <ele>368</ele>
        <time>2020-01-26T08:51:38 01:00</time>
      </trkpt>
      <trkpt lat="45.48947" lon="5.97701">
        <ele>370</ele>
        <time>2020-01-26T08:51:43 01:00</time>
      </trkpt>
      <trkpt lat="45.48986" lon="5.97683">
        <ele>372</ele>
        <time>2020-01-26T08:51:48 01:00</time>
      </trkpt>
      <trkpt lat="45.49006" lon="5.97686">
        <ele>373</ele>
        <time>2020-01-26T08:51:53 01:00</time>
      </trkpt>
      <trkpt lat="45.49035" lon="5.97681">
        <ele>374</ele>
        <time>2020-01-26T08:51:58 01:00</time>
      </trkpt>
      <trkpt lat="45.49048" lon="5.97694">
        <ele>374</ele>
        <time>2020-01-26T08:52:03 01:00</time>
      </trkpt>
      <trkpt lat="45.49065" lon="5.97719">
        <ele>374</ele>
        <time>2020-01-26T08:52:08 01:00</time>
      </trkpt>
      <trkpt lat="45.49103" lon="5.9775">
        <ele>375</ele>
        <time>2020-01-26T08:52:13 01:00</time>
      </trkpt>
      <trkpt lat="45.49066" lon="5.97811">
        <ele>370</ele>
        <time>2020-01-26T08:52:18 01:00</time>
      </trkpt>
      <trkpt lat="45.49054" lon="5.97839">
        <ele>368</ele>
        <time>2020-01-26T08:52:23 01:00</time>
      </trkpt>
      <trkpt lat="45.49056" lon="5.97887">
        <ele>365</ele>
        <time>2020-01-26T08:52:28 01:00</time>
      </trkpt>
      <trkpt lat="45.49081" lon="5.9795">
        <ele>360</ele>
        <time>2020-01-26T08:52:33 01:00</time>
      </trkpt>
      <trkpt lat="45.49118" lon="5.98013">
        <ele>354</ele>
        <time>2020-01-26T08:52:38 01:00</time>
      </trkpt>
      <trkpt lat="45.49122" lon="5.98044">
        <ele>350</ele>
        <time>2020-01-26T08:52:43 01:00</time>
      </trkpt>
      <trkpt lat="45.49116" lon="5.98077">
        <ele>345</ele>
        <time>2020-01-26T08:52:48 01:00</time>
      </trkpt>
      <trkpt lat="45.49106" lon="5.98164">
        <ele>331</ele>
        <time>2020-01-26T08:52:53 01:00</time>
      </trkpt>
      <trkpt lat="45.49132" lon="5.98164">
        <ele>332</ele>
        <time>2020-01-26T08:52:58 01:00</time>
      </trkpt>
      <trkpt lat="45.49128" lon="5.98239">
        <ele>319</ele>
        <time>2020-01-26T08:53:03 01:00</time>
      </trkpt>
      <trkpt lat="45.49169" lon="5.98247">
        <ele>320</ele>
        <time>2020-01-26T08:53:08 01:00</time>
      </trkpt>
      <trkpt lat="45.49182" lon="5.9831">
        <ele>310</ele>
        <time>2020-01-26T08:53:13 01:00</time>
      </trkpt>
      <trkpt lat="45.49176" lon="5.98358">
        <ele>303</ele>
        <time>2020-01-26T08:53:18 01:00</time>
      </trkpt>
      <trkpt lat="45.49175" lon="5.98365">
        <ele>303</ele>
        <time>2020-01-26T08:53:23 01:00</time>
      </trkpt>
      <trkpt lat="45.49158" lon="5.984">
        <ele>300</ele>
        <time>2020-01-26T08:53:28 01:00</time>
      </trkpt>
      <trkpt lat="45.49159" lon="5.9844">
        <ele>298</ele>
        <time>2020-01-26T08:53:33 01:00</time>
      </trkpt>
      <trkpt lat="45.49179" lon="5.9844">
        <ele>298</ele>
        <time>2020-01-26T08:53:38 01:00</time>
      </trkpt>
      <trkpt lat="45.49226" lon="5.98487">
        <ele>296</ele>
        <time>2020-01-26T08:53:43 01:00</time>
      </trkpt>
      <trkpt lat="45.49211" lon="5.98605">
        <ele>295</ele>
        <time>2020-01-26T08:53:48 01:00</time>
      </trkpt>
      <trkpt lat="45.49381" lon="5.98831">
        <ele>295</ele>
        <time>2020-01-26T08:53:53 01:00</time>
      </trkpt>
    </trkseg>
  </trk>
</gpx>